Time;durP1;ratioP1;P1;durP2;ratioP2;P2;SDS_P1;SDS_P2;PMS_P1;PMS_P2;Temp;Humidity;BMP_temperature;BMP_pressure;BME280_temperature;BME280_humidity;BME280_pressure;Samples;Min_cycle;Max_cycle;Signal;HPM_P1;HPM_P2
2022/09/13 00:00:04;;;;;;;17.80;14.18;;;18.10;99.90;;;;;;4916020;29;20046;-85
2022/09/13 00:02:30;;;;;;;17.05;14.68;;;18.10;99.90;;;;;;4922095;29;20122;-84
2022/09/13 00:04:56;;;;;;;19.95;14.02;;;18.10;99.90;;;;;;4897521;28;20039;-83
2022/09/13 00:07:21;;;;;;;15.82;13.73;;;18.10;99.90;;;;;;4916047;29;20043;-81
2022/09/13 00:09:47;;;;;;;19.58;14.98;;;18.10;99.90;;;;;;4936068;29;20051;-82
2022/09/13 00:12:13;;;;;;;16.90;14.18;;;18.10;99.90;;;;;;4951190;28;20067;-83
2022/09/13 00:14:38;;;;;;;17.70;14.50;;;18.20;99.90;;;;;;4910729;28;20039;-83
2022/09/13 00:17:04;;;;;;;18.67;14.10;;;18.20;99.90;;;;;;4938814;28;20042;-84
2022/09/13 00:19:30;;;;;;;17.90;14.98;;;18.10;99.90;;;;;;4919881;29;20039;-83
2022/09/13 00:21:58;;;;;;;17.52;14.60;;;18.20;99.90;;;;;;4933690;29;20047;-84
2022/09/13 00:24:30;;;;;;;19.63;13.85;;;18.20;99.90;;;;;;4908291;29;20032;-83
2022/09/13 00:26:59;;;;;;;18.08;15.23;;;18.20;99.90;;;;;;4910659;29;20082;-84
2022/09/13 00:29:25;;;;;;;18.75;15.38;;;18.20;99.90;;;;;;4918321;28;20071;-83
2022/09/13 00:31:51;;;;;;;17.73;14.32;;;18.20;99.90;;;;;;4909751;28;20404;-83
2022/09/13 00:34:17;;;;;;;19.33;15.00;;;18.20;99.90;;;;;;4920222;29;20121;-84
2022/09/13 00:36:43;;;;;;;17.38;14.75;;;18.20;99.90;;;;;;4901246;29;20035;-85
2022/09/13 00:39:10;;;;;;;21.52;16.15;;;18.20;99.90;;;;;;4906342;28;20047;-85
2022/09/13 00:41:36;;;;;;;18.90;15.55;;;18.20;99.90;;;;;;4945976;28;20419;-85
2022/09/13 00:44:39;;;;;;;21.40;16.30;;;18.20;99.90;;;;;;4903712;29;20043;-86
2022/09/13 00:47:18;;;;;;;21.73;15.98;;;18.20;99.90;;;;;;4920494;29;20399;-86
2022/09/13 00:50:12;;;;;;;22.17;16.00;;;18.10;99.90;;;;;;4939775;29;20082;-87
2022/09/13 00:52:49;;;;;;;21.02;16.15;;;18.10;99.90;;;;;;4918731;29;20051;-85
2022/09/13 00:55:21;;;;;;;18.27;14.52;;;18.10;99.90;;;;;;4927533;29;20412;-84
2022/09/13 00:57:48;;;;;;;24.33;17.30;;;18.20;99.90;;;;;;4932828;29;20060;-83
2022/09/13 01:00:17;;;;;;;21.40;16.63;;;18.10;99.90;;;;;;4935695;29;20062;-84
2022/09/13 01:02:54;;;;;;;28.33;18.30;;;18.30;99.90;;;;;;4910153;29;20138;-84
2022/09/13 01:05:33;;;;;;;30.23;20.25;;;18.20;99.90;;;;;;4919881;29;20040;-85
2022/09/13 01:08:01;;;;;;;25.67;18.83;;;18.20;99.90;;;;;;4920084;29;20444;-83
2022/09/13 01:10:27;;;;;;;35.72;21.80;;;18.20;99.90;;;;;;4936402;29;20090;-85
2022/09/13 01:13:27;;;;;;;29.77;20.55;;;18.30;99.90;;;;;;4920310;29;20047;-85
2022/09/13 01:15:53;;;;;;;36.10;22.90;;;18.30;99.90;;;;;;4880984;29;20051;-86
2022/09/13 01:18:19;;;;;;;30.38;22.23;;;18.30;99.90;;;;;;4929393;29;20044;-85
2022/09/13 01:21:07;;;;;;;27.75;20.80;;;18.30;99.90;;;;;;4947198;28;20039;-86
2022/09/13 01:24:19;;;;;;;31.17;21.63;;;18.30;99.90;;;;;;4916540;29;20136;-86
2022/09/13 01:27:27;;;;;;;24.40;19.08;;;18.30;99.90;;;;;;4952495;28;20052;-87
2022/09/13 01:30:01;;;;;;;27.38;19.33;;;18.40;99.90;;;;;;4919150;29;20043;-85
2022/09/13 01:32:45;;;;;;;26.73;19.67;;;18.30;99.90;;;;;;4922249;29;20777;-86
2022/09/13 01:35:38;;;;;;;29.98;19.02;;;18.20;99.90;;;;;;4913931;29;20055;-86
2022/09/13 01:38:25;;;;;;;23.67;17.27;;;18.40;99.90;;;;;;4918762;29;20043;-84
2022/09/13 01:41:34;;;;;;;23.05;16.80;;;18.30;99.90;;;;;;4935193;29;20102;-84
2022/09/13 01:44:27;;;;;;;23.42;16.67;;;18.30;99.90;;;;;;4928373;29;20094;-83
2022/09/13 01:47:03;;;;;;;22.45;16.67;;;18.30;99.90;;;;;;4918584;29;20043;-84
2022/09/13 01:49:45;;;;;;;22.80;16.63;;;18.30;99.90;;;;;;4925895;29;20456;-86
2022/09/13 01:52:30;;;;;;;19.88;15.65;;;18.30;99.90;;;;;;4901254;29;20047;-85
2022/09/13 01:55:27;;;;;;;18.08;14.00;;;18.20;99.90;;;;;;4929432;29;20094;-85
2022/09/13 01:58:19;;;;;;;20.30;14.95;;;18.20;99.90;;;;;;4919950;29;20039;-85
2022/09/13 02:01:02;;;;;;;19.85;14.40;;;18.20;99.90;;;;;;4932142;29;20052;-83
2022/09/13 02:04:01;;;;;;;19.88;13.57;;;18.20;99.90;;;;;;4916437;29;20050;-84
2022/09/13 02:06:37;;;;;;;19.17;13.18;;;18.30;99.90;;;;;;4899860;29;20067;-84
2022/09/13 02:09:10;;;;;;;16.27;12.07;;;17.50;99.90;;;;;;4903142;29;20426;-84
2022/09/13 02:11:43;;;;;;;14.70;12.38;;;18.20;99.90;;;;;;4946860;29;20517;-85
2022/09/13 02:14:25;;;;;;;16.25;12.95;;;18.10;99.90;;;;;;4918774;29;20035;-84
2022/09/13 02:17:00;;;;;;;14.80;11.93;;;18.20;99.90;;;;;;4918599;29;20130;-86
2022/09/13 02:19:41;;;;;;;14.55;12.00;;;18.10;99.90;;;;;;4919025;29;20039;-85
2022/09/13 02:22:10;;;;;;;15.30;11.75;;;18.10;99.90;;;;;;4934632;29;20048;-84
2022/09/13 02:24:44;;;;;;;17.77;12.02;;;18.20;99.90;;;;;;4913301;29;20032;-84
2022/09/13 02:27:20;;;;;;;12.77;11.35;;;18.20;99.90;;;;;;4932052;29;20370;-84
2022/09/13 02:29:49;;;;;;;12.98;11.32;;;18.20;99.90;;;;;;4919651;29;20484;-85
2022/09/13 02:32:25;;;;;;;14.07;11.50;;;18.20;99.90;;;;;;4910563;29;20054;-86
2022/09/13 02:35:04;;;;;;;16.10;12.13;;;18.10;99.90;;;;;;4921625;29;20056;-87
2022/09/13 02:37:35;;;;;;;17.42;12.10;;;18.10;99.90;;;;;;4924629;29;20574;-87
2022/09/13 02:40:06;;;;;;;16.33;13.02;;;18.10;99.90;;;;;;4929313;29;20114;-86
2022/09/13 02:42:41;;;;;;;15.75;12.88;;;18.20;99.90;;;;;;4915286;29;20087;-85
2022/09/13 02:45:08;;;;;;;15.38;12.20;;;18.30;99.90;;;;;;4916295;29;20047;-85
2022/09/13 02:47:45;;;;;;;19.02;12.27;;;18.30;99.90;;;;;;4920520;28;20523;-87
2022/09/13 02:50:54;;;;;;;13.25;11.50;;;18.20;99.90;;;;;;4920556;29;20036;-85
2022/09/13 02:53:42;;;;;;;17.75;11.80;;;18.20;99.90;;;;;;4908135;29;20126;-85
2022/09/13 02:56:33;;;;;;;15.98;11.90;;;18.20;99.90;;;;;;4928669;29;20052;-85
2022/09/13 02:59:48;;;;;;;14.05;11.85;;;18.20;99.90;;;;;;4932454;29;20179;-89
2022/09/13 03:02:27;;;;;;;16.63;11.20;;;18.60;99.90;;;;;;4922444;29;20071;-90
2022/09/13 03:04:58;;;;;;;15.95;11.27;;;17.60;99.90;;;;;;4921541;29;20087;-90
2022/09/13 03:07:30;;;;;;;16.92;11.43;;;18.40;99.90;;;;;;4920158;29;20089;-89
2022/09/13 03:10:12;;;;;;;13.45;11.32;;;18.40;99.90;;;;;;4947891;29;20067;-89
2022/09/13 03:17:06;;;;;;;11.90;9.30;;;18.40;99.90;;;;;;4934722;29;20051;-90
2022/09/13 03:23:57;;;;;;;4.82;4.00;;;18.50;99.90;;;;;;4858873;29;20137;-87
2022/09/13 03:26:45;;;;;;;4.75;2.30;;;18.30;99.90;;;;;;4906671;29;20055;-86
2022/09/13 03:29:30;;;;;;;2.58;2.22;;;18.20;99.90;;;;;;4917734;29;20047;-88
2022/09/13 03:31:56;;;;;;;;;;;17.90;99.90;;;;;;4929471;29;20427;-86
2022/09/13 03:34:39;;;;;;;3.45;2.13;;;18.10;99.90;;;;;;4934791;29;19918;-88
2022/09/13 03:37:34;;;;;;;3.95;2.50;;;18.20;99.90;;;;;;4934186;29;20043;-88
2022/09/13 03:40:07;;;;;;;3.78;2.75;;;18.00;99.90;;;;;;4938795;29;20130;-88
2022/09/13 03:42:52;;;;;;;2.83;2.60;;;18.00;99.90;;;;;;4938269;29;20054;-89
2022/09/13 03:45:20;;;;;;;;;;;18.10;99.90;;;;;;4916117;29;20040;-86
2022/09/13 03:47:49;;;;;;;4.55;2.28;;;18.20;99.90;;;;;;4930506;29;20365;-86
2022/09/13 03:50:20;;;;;;;5.18;2.95;;;18.10;99.90;;;;;;4910133;29;20036;-84
2022/09/13 03:52:51;;;;;;;4.38;2.78;;;18.10;99.90;;;;;;4947801;29;20043;-86
2022/09/13 03:55:20;;;;;;;5.70;2.97;;;18.10;99.90;;;;;;4933166;29;20199;-85
2022/09/13 03:57:46;;;;;;;4.20;2.63;;;18.10;99.90;;;;;;4922741;29;20052;-86
2022/09/13 04:00:14;;;;;;;3.30;2.50;;;18.10;99.90;;;;;;4932626;29;20036;-86
2022/09/13 04:02:39;;;;;;;2.60;2.30;;;18.10;99.90;;;;;;4900020;29;20040;-87
2022/09/13 04:05:12;;;;;;;3.97;2.05;;;18.20;99.90;;;;;;4905589;29;20191;-87
2022/09/13 04:07:41;;;;;;;3.33;2.40;;;18.40;99.90;;;;;;4919640;29;20040;-87
2022/09/13 04:10:20;;;;;;;3.50;2.50;;;18.20;99.90;;;;;;4915402;29;20067;-86
2022/09/13 04:12:46;;;;;;;2.42;2.00;;;18.10;99.90;;;;;;4905154;29;20515;-87
2022/09/13 04:15:11;;;;;;;4.78;2.40;;;18.00;99.90;;;;;;4902440;29;20043;-87
2022/09/13 04:17:40;;;;;;;3.50;2.67;;;18.20;99.90;;;;;;4933660;29;20044;-88
2022/09/13 04:20:06;;;;;;;5.38;2.95;;;18.10;99.90;;;;;;4917753;29;20051;-87
2022/09/13 04:22:32;;;;;;;3.35;2.92;;;18.30;99.90;;;;;;4902266;29;20493;-86
2022/09/13 04:24:59;;;;;;;6.75;3.08;;;18.20;99.90;;;;;;4901990;29;20511;-86
2022/09/13 04:27:24;;;;;;;4.57;3.15;;;18.20;99.90;;;;;;4901583;29;20048;-85
2022/09/13 04:29:50;;;;;;;4.63;3.60;;;18.30;99.90;;;;;;4928410;29;20043;-88
2022/09/13 04:32:16;;;;;;;6.93;3.88;;;18.20;99.90;;;;;;4916984;29;20107;-89
2022/09/13 04:34:42;;;;;;;8.05;4.47;;;18.30;99.90;;;;;;4928941;29;20048;-88
2022/09/13 04:37:17;;;;;;;6.15;4.80;;;18.20;99.90;;;;;;4904973;29;20457;-90
2022/09/13 04:39:45;;;;;;;6.53;4.18;;;18.30;99.90;;;;;;4918560;29;20553;-91
2022/09/13 04:42:11;;;;;;;6.90;4.63;;;18.20;99.90;;;;;;4921626;29;20047;-88
2022/09/13 04:44:37;;;;;;;7.00;4.28;;;18.20;99.90;;;;;;4928889;29;20036;-89
2022/09/13 04:47:05;;;;;;;5.80;5.22;;;18.20;99.90;;;;;;4906012;29;20404;-87
2022/09/13 04:49:33;;;;;;;4.97;3.80;;;18.10;99.90;;;;;;4921201;29;20047;-87
2022/09/13 04:52:00;;;;;;;5.28;3.85;;;18.30;99.90;;;;;;4934216;29;20047;-87
2022/09/13 04:54:28;;;;;;;5.63;3.00;;;18.20;99.90;;;;;;4917519;29;20185;-89
2022/09/13 04:57:00;;;;;;;5.55;3.03;;;18.40;99.90;;;;;;4914052;29;20448;-89
2022/09/13 04:59:26;;;;;;;5.78;2.67;;;18.70;99.90;;;;;;4935215;29;20039;-88
2022/09/13 05:01:52;;;;;;;3.35;2.42;;;18.40;99.90;;;;;;4922613;29;20078;-87
2022/09/13 05:04:18;;;;;;;4.47;2.40;;;18.20;99.90;;;;;;4905384;29;20093;-87
2022/09/13 05:23:27;;;;;;;;;;;;;;;;;;;;;
2022/09/13 05:30:04;;;;;;;3.13;1.92;;;18.20;99.90;;;;;;4750790;29;20175;-87
2022/09/13 05:32:36;;;;;;;4.63;2.90;;;17.80;99.90;;;;;;4766760;29;20051;-89
2022/09/13 05:35:26;;;;;;;5.10;2.38;;;18.30;99.90;;;;;;4794605;29;20054;-88
2022/09/13 05:38:26;;;;;;;;;;;;;;;;;;;;;
2022/09/13 05:41:10;;;;;;;9.40;2.10;;;17.50;99.90;;;;;;4813831;29;20066;-85
2022/09/13 05:46:57;;;;;;;6.15;2.03;;;17.50;99.90;;;;;;4864859;29;20055;-88
2022/09/13 05:49:28;;;;;;;5.22;1.63;;;18.00;99.90;;;;;;4908349;28;20130;-86
2022/09/13 05:52:00;;;;;;;6.65;1.80;;;17.70;99.90;;;;;;4912722;29;20453;-86
2022/09/13 05:54:29;;;;;;;5.38;1.70;;;18.10;99.90;;;;;;4945357;28;20055;-86
2022/09/13 05:56:57;;;;;;;4.85;2.17;;;18.20;99.90;;;;;;4892923;29;20445;-85
2022/09/13 06:00:31;;;;;;;2.70;1.60;;;18.30;99.90;;;;;;4944372;29;20050;-87
2022/09/13 06:03:16;;;;;;;4.50;1.50;;;17.60;99.90;;;;;;4863678;29;20063;-88
2022/09/13 06:06:10;;;;;;;6.85;1.80;;;18.10;99.90;;;;;;4923262;29;20039;-87
2022/09/13 06:16:43;;;;;;;4.18;1.60;;;18.30;99.90;;;;;;4896074;29;20160;-86
2022/09/13 06:19:15;;;;;;;6.45;1.75;;;18.30;99.90;;;;;;4881709;29;20037;-89
2022/09/13 06:21:41;;;;;;;5.63;2.00;;;18.50;99.90;;;;;;4860504;29;20041;-86
2022/09/13 06:24:08;;;;;;;10.70;1.88;;;18.30;99.90;;;;;;4864542;29;20047;-86
2022/09/13 06:26:33;;;;;;;4.93;2.00;;;18.50;99.90;;;;;;4899831;29;20054;-84
2022/09/13 06:29:02;;;;;;;7.30;1.48;;;18.40;99.90;;;;;;4919149;29;20043;-84
2022/09/13 06:31:28;;;;;;;6.43;1.73;;;17.30;99.90;;;;;;4919052;29;20428;-84
2022/09/13 06:33:57;;;;;;;6.63;1.75;;;18.60;99.90;;;;;;4919511;29;20043;-84
2022/09/13 06:36:23;;;;;;;6.55;1.70;;;18.60;99.90;;;;;;4918761;29;20044;-87
2022/09/13 06:38:49;;;;;;;6.75;1.63;;;18.70;99.90;;;;;;4931297;29;20067;-84
2022/09/13 06:41:17;;;;;;;5.22;1.95;;;18.50;99.90;;;;;;4922849;29;20122;-85
2022/09/13 06:44:24;;;;;;;11.00;2.30;;;18.50;99.90;;;;;;4937752;29;20488;-87
2022/09/13 06:47:14;;;;;;;6.53;2.30;;;18.70;99.90;;;;;;4935677;29;20087;-86
2022/09/13 06:49:40;;;;;;;8.52;1.88;;;18.60;99.90;;;;;;4917658;29;20166;-87
2022/09/13 06:52:06;;;;;;;6.63;1.83;;;17.90;99.90;;;;;;4933325;29;20147;-87
2022/09/13 06:54:32;;;;;;;6.45;1.83;;;18.80;99.90;;;;;;4917946;29;20554;-86
2022/09/13 06:56:58;;;;;;;4.97;1.52;;;18.80;99.90;;;;;;4918079;29;20043;-85
2022/09/13 06:59:26;;;;;;;8.40;1.83;;;18.80;99.90;;;;;;4912878;29;20123;-85
2022/09/13 07:01:52;;;;;;;6.03;2.38;;;18.80;99.90;;;;;;4932915;29;20107;-85
2022/09/13 07:05:02;;;;;;;6.45;1.85;;;18.80;99.90;;;;;;4915889;29;20087;-90
2022/09/13 07:07:30;;;;;;;6.25;1.33;;;18.40;99.90;;;;;;4918161;29;20071;-88
2022/09/13 07:09:56;;;;;;;7.15;1.63;;;18.30;99.90;;;;;;4921170;29;20042;-87
2022/09/13 07:12:22;;;;;;;4.47;1.40;;;18.80;99.90;;;;;;4933229;29;20051;-87
2022/09/13 07:14:48;;;;;;;10.45;1.40;;;19.00;99.90;;;;;;4881534;29;20080;-82
2022/09/13 07:17:13;;;;;;;8.70;1.83;;;19.10;99.90;;;;;;4931015;29;20051;-86
2022/09/13 07:19:39;;;;;;;7.18;1.73;;;19.10;99.90;;;;;;4921498;29;20130;-87
2022/09/13 07:22:10;;;;;;;7.05;1.75;;;19.20;99.90;;;;;;4917488;29;20043;-88
2022/09/13 07:24:36;;;;;;;7.80;1.50;;;19.10;99.90;;;;;;4948949;28;20043;-85
2022/09/13 07:27:01;;;;;;;6.60;1.63;;;19.10;99.90;;;;;;4946011;28;20038;-82
2022/09/13 07:29:27;;;;;;;4.68;1.40;;;19.10;99.90;;;;;;4939618;28;20039;-82
2022/09/13 07:31:55;;;;;;;4.90;1.30;;;19.10;99.90;;;;;;4903883;29;20067;-81
2022/09/13 07:34:26;;;;;;;2.40;0.90;;;19.00;99.90;;;;;;4928409;29;20044;-82
2022/09/13 07:36:52;;;;;;;5.63;1.10;;;18.70;99.90;;;;;;4905847;29;20040;-83
2022/09/13 07:39:18;;;;;;;4.57;1.10;;;18.90;99.90;;;;;;4934240;29;20123;-83
2022/09/13 07:41:45;;;;;;;4.95;1.00;;;18.70;99.90;;;;;;4912103;29;20437;-81
2022/09/13 07:44:11;;;;;;;1.65;1.10;;;18.40;99.90;;;;;;4917619;29;20048;-84
2022/09/13 07:46:42;;;;;;;3.80;0.98;;;18.30;99.90;;;;;;4919597;29;20118;-82
2022/09/13 07:49:11;;;;;;;3.75;1.08;;;18.20;99.90;;;;;;4934010;29;20044;-86
2022/09/13 07:51:40;;;;;;;5.47;1.48;;;19.20;99.90;;;;;;4934038;29;20047;-82
2022/09/13 07:54:11;;;;;;;6.72;0.85;;;18.40;99.90;;;;;;4920233;29;20043;-82
2022/09/13 07:56:39;;;;;;;5.93;1.35;;;18.40;99.90;;;;;;4936633;29;20039;-83
2022/09/13 07:59:10;;;;;;;3.20;1.05;;;18.20;99.90;;;;;;4936683;29;20085;-83
2022/09/13 08:01:39;;;;;;;4.88;1.20;;;18.20;99.90;;;;;;4921782;29;20441;-82
2022/09/13 08:04:08;;;;;;;10.93;1.98;;;18.30;99.90;;;;;;4940577;29;20073;-82
2022/09/13 08:06:35;;;;;;;4.53;1.00;;;18.40;99.90;;;;;;4956677;29;20043;-83
2022/09/13 08:09:08;;;;;;;6.47;1.02;;;18.50;99.90;;;;;;4940436;29;20082;-86
2022/09/13 08:11:43;;;;;;;2.65;1.00;;;18.60;99.90;;;;;;4924324;29;20126;-85
2022/09/13 08:14:12;;;;;;;3.28;1.00;;;18.60;99.90;;;;;;4956370;28;20496;-83
2022/09/13 08:16:40;;;;;;;5.95;1.10;;;18.60;99.90;;;;;;4956338;29;20040;-85
2022/09/13 08:19:08;;;;;;;4.10;1.08;;;18.50;99.90;;;;;;4908844;29;20043;-85
2022/09/13 08:21:39;;;;;;;3.95;1.05;;;18.40;99.90;;;;;;4955317;29;20063;-85
2022/09/13 08:24:07;;;;;;;3.00;0.90;;;18.20;99.90;;;;;;4956018;29;20050;-84
2022/09/13 08:26:35;;;;;;;4.35;1.00;;;18.40;99.90;;;;;;4908531;29;20043;-84
2022/09/13 08:29:03;;;;;;;3.65;0.95;;;18.40;99.90;;;;;;4924536;29;20039;-86
2022/09/13 08:31:30;;;;;;;4.53;0.90;;;18.50;99.90;;;;;;4955809;29;20039;-86
2022/09/13 08:33:56;;;;;;;5.00;1.10;;;18.60;99.90;;;;;;4956405;29;20046;-86
2022/09/13 08:36:24;;;;;;;7.45;1.35;;;18.80;99.90;;;;;;4939723;29;20068;-86
2022/09/13 08:38:56;;;;;;;5.47;1.10;;;18.60;99.90;;;;;;4956056;29;20079;-85
2022/09/13 08:41:47;;;;;;;6.35;1.00;;;18.40;99.90;;;;;;4956262;29;20051;-85
2022/09/13 08:44:33;;;;;;;7.07;0.98;;;17.80;99.90;;;;;;4923948;29;20045;-84
2022/09/13 08:47:27;;;;;;;6.13;1.20;;;18.70;99.90;;;;;;4956010;29;20081;-85
2022/09/13 08:50:05;;;;;;;2.72;0.77;;;18.90;99.90;;;;;;4955990;29;20039;-86
2022/09/13 08:52:56;;;;;;;3.53;1.40;;;18.60;99.90;;;;;;4923986;29;20150;-85
2022/09/13 08:55:36;;;;;;;5.20;0.88;;;18.50;99.90;;;;;;4955242;29;20055;-85
2022/09/13 08:58:15;;;;;;;5.32;1.15;;;18.60;99.90;;;;;;4923996;29;20058;-86
2022/09/13 09:00:48;;;;;;;3.58;1.52;;;18.80;99.90;;;;;;4924087;29;20054;-85
2022/09/13 09:03:20;;;;;;;5.50;1.10;;;18.80;99.90;;;;;;4955297;28;20471;-84
2022/09/13 09:05:51;;;;;;;3.33;1.10;;;18.90;99.90;;;;;;4923995;29;20047;-84
2022/09/13 09:08:43;;;;;;;3.13;1.00;;;19.00;99.90;;;;;;4923132;29;20043;-83
2022/09/13 09:11:40;;;;;;;5.78;1.27;;;18.90;99.90;;;;;;4955970;29;20043;-83
2022/09/13 09:14:32;;;;;;;5.88;1.23;;;18.50;99.90;;;;;;4955165;28;20137;-86
2022/09/13 09:17:12;;;;;;;5.43;1.20;;;18.50;99.90;;;;;;4955720;29;20043;-86
2022/09/13 09:20:08;;;;;;;7.65;1.23;;;18.80;99.90;;;;;;4955246;29;20385;-84
2022/09/13 09:22:35;;;;;;;2.25;0.93;;;19.10;99.90;;;;;;4923266;29;20086;-84
2022/09/13 09:25:02;;;;;;;5.38;0.85;;;19.20;99.90;;;;;;4939628;29;20098;-88
2022/09/13 09:27:30;;;;;;;5.45;0.80;;;19.40;99.90;;;;;;4939097;29;20378;-86
2022/09/13 09:29:57;;;;;;;3.30;0.90;;;19.20;99.90;;;;;;4955105;29;20043;-84
2022/09/13 09:32:29;;;;;;;6.20;1.00;;;18.90;99.90;;;;;;4955037;29;20051;-83
2022/09/13 09:35:22;;;;;;;5.65;1.00;;;19.20;99.90;;;;;;4923868;29;20058;-83
2022/09/13 09:38:22;;;;;;;4.43;1.05;;;19.40;99.90;;;;;;4939025;29;20043;-88
2022/09/13 09:40:48;;;;;;;3.22;1.02;;;19.50;99.90;;;;;;4924008;29;20389;-85
2022/09/13 09:43:39;;;;;;;5.40;1.08;;;19.90;99.90;;;;;;4938924;29;20511;-84
2022/09/13 09:46:08;;;;;;;4.60;1.00;;;20.30;99.90;;;;;;4922887;29;20047;-85
2022/09/13 09:48:55;;;;;;;4.28;1.27;;;20.30;99.90;;;;;;4954436;29;20403;-86
2022/09/13 09:51:24;;;;;;;4.38;1.05;;;20.20;99.90;;;;;;4923053;29;20031;-84
2022/09/13 09:54:00;;;;;;;4.90;1.05;;;20.60;99.90;;;;;;4955264;29;20039;-81
2022/09/13 09:56:32;;;;;;;4.63;1.17;;;20.50;99.90;;;;;;4955296;29;20493;-85
2022/09/13 09:58:58;;;;;;;4.40;0.80;;;20.40;99.90;;;;;;4954618;29;20043;-84
2022/09/13 10:01:29;;;;;;;3.65;0.93;;;20.70;99.90;;;;;;4954414;29;20069;-85
2022/09/13 10:04:18;;;;;;;6.00;1.20;;;20.90;99.90;;;;;;4954656;29;20057;-84
2022/09/13 10:06:45;;;;;;;5.15;1.17;;;20.80;99.90;;;;;;4954418;29;20039;-82
2022/09/13 10:09:20;;;;;;;4.05;0.95;;;21.10;99.90;;;;;;4906790;29;20121;-85
2022/09/13 10:11:50;;;;;;;2.65;0.90;;;20.90;99.90;;;;;;4922578;29;20381;-84
2022/09/13 10:15:06;;;;;;;6.65;1.40;;;21.20;99.90;;;;;;4953935;29;20039;-83
2022/09/13 10:17:35;;;;;;;6.78;1.20;;;20.40;99.90;;;;;;4909710;29;20047;-82
2022/09/13 10:20:15;;;;;;;6.45;1.27;;;20.00;99.90;;;;;;4934347;29;20044;-84
2022/09/13 10:22:44;;;;;;;4.68;1.00;;;19.60;99.90;;;;;;4918294;29;20052;-84
2022/09/13 10:25:26;;;;;;;2.70;0.80;;;19.80;99.90;;;;;;4934161;29;20039;-82
2022/09/13 10:28:00;;;;;;;4.55;1.70;;;20.10;99.90;;;;;;4903396;29;20035;-84
2022/09/13 10:30:37;;;;;;;5.78;1.15;;;19.90;99.90;;;;;;4932706;29;20048;-85
2022/09/13 10:33:17;;;;;;;2.70;0.90;;;20.00;99.90;;;;;;4901548;29;20116;-85
2022/09/13 10:35:52;;;;;;;4.78;1.10;;;20.40;99.90;;;;;;4915072;29;20083;-84
2022/09/13 10:38:39;;;;;;;5.43;1.30;;;20.50;99.90;;;;;;4933955;29;20396;-82
2022/09/13 10:41:22;;;;;;;4.57;1.05;;;20.90;99.90;;;;;;4902898;29;20047;-83
2022/09/13 10:44:07;;;;;;;4.13;1.13;;;20.80;99.90;;;;;;4902943;29;20048;-84
2022/09/13 10:46:37;;;;;;;3.13;0.82;;;20.40;99.90;;;;;;4924572;29;20050;-81
2022/09/13 10:49:03;;;;;;;6.10;1.05;;;20.00;99.90;;;;;;4920596;29;20102;-81
2022/09/13 10:51:36;;;;;;;5.85;1.08;;;20.00;99.90;;;;;;4904437;29;20035;-83
2022/09/13 10:54:19;;;;;;;5.53;1.60;;;20.30;99.90;;;;;;4932989;29;20047;-81
2022/09/13 10:56:46;;;;;;;2.95;1.05;;;20.70;99.90;;;;;;4920492;29;20047;-81
2022/09/13 10:59:30;;;;;;;3.88;1.20;;;20.80;99.90;;;;;;4920397;29;20047;-81
2022/09/13 11:01:59;;;;;;;2.80;0.85;;;20.90;99.90;;;;;;4920615;29;20047;-81
2022/09/13 11:04:39;;;;;;;3.63;0.90;;;21.00;99.90;;;;;;4920037;29;20399;-81
2022/09/13 11:07:20;;;;;;;2.58;0.85;;;21.00;99.90;;;;;;4921079;29;20050;-78
2022/09/13 11:09:57;;;;;;;2.95;1.00;;;20.70;99.90;;;;;;4920652;29;20436;-81
2022/09/13 11:12:56;;;;;;;5.15;1.10;;;20.50;99.90;;;;;;4920124;29;20477;-83
2022/09/13 11:15:40;;;;;;;4.80;1.13;;;20.10;99.90;;;;;;4919804;29;20075;-82
2022/09/13 11:18:13;;;;;;;3.13;0.83;;;20.60;99.90;;;;;;4920137;29;20047;-81
2022/09/13 11:21:04;;;;;;;3.70;1.20;;;21.00;99.90;;;;;;4920304;29;20290;-83
2022/09/13 11:23:32;;;;;;;8.68;1.17;;;21.20;99.90;;;;;;4904184;29;20051;-87
2022/09/13 11:26:16;;;;;;;3.70;0.90;;;21.50;99.90;;;;;;4920457;29;20077;-80
2022/09/13 11:29:14;;;;;;;2.65;0.90;;;21.50;99.90;;;;;;4919772;29;20508;-82
2022/09/13 11:32:13;;;;;;;1.95;0.80;;;21.20;99.90;;;;;;4935751;29;20078;-81
2022/09/13 11:34:51;;;;;;;5.25;1.38;;;21.60;99.90;;;;;;4919793;29;20086;-82
2022/09/13 11:37:32;;;;;;;4.53;0.95;;;21.60;99.90;;;;;;4918925;29;20182;-80
2022/09/13 11:40:16;;;;;;;3.67;0.93;;;22.00;99.90;;;;;;4920526;29;20051;-82
2022/09/13 11:43:14;;;;;;;3.35;1.10;;;21.80;99.90;;;;;;4919584;29;20051;-82
2022/09/13 11:45:53;;;;;;;3.78;1.02;;;21.70;99.90;;;;;;4919357;29;20485;-79
2022/09/13 11:48:39;;;;;;;3.15;1.10;;;21.40;99.90;;;;;;4919612;29;20495;-80
2022/09/13 11:51:30;;;;;;;3.80;1.20;;;21.40;99.90;;;;;;4919793;29;20400;-80
2022/09/13 11:54:22;;;;;;;4.70;1.30;;;21.20;99.90;;;;;;4920052;29;20050;-82
2022/09/13 11:56:53;;;;;;;4.65;1.10;;;20.80;99.90;;;;;;4935612;29;20138;-82
2022/09/13 11:59:48;;;;;;;3.05;1.13;;;20.20;99.90;;;;;;4919490;29;20047;-80
2022/09/13 12:02:28;;;;;;;3.10;1.08;;;20.30;99.90;;;;;;4919444;29;20054;-81
2022/09/13 12:05:23;;;;;;;10.55;1.85;;;20.50;99.90;;;;;;4935776;29;20062;-81
2022/09/13 12:07:56;;;;;;;4.70;1.10;;;20.70;99.90;;;;;;4934830;29;20138;-81
2022/09/13 12:10:28;;;;;;;4.72;1.10;;;20.70;99.90;;;;;;4918717;29;20039;-81
2022/09/13 12:12:55;;;;;;;3.58;0.93;;;20.20;99.90;;;;;;4935049;29;20392;-80
2022/09/13 12:15:36;;;;;;;6.32;1.10;;;20.50;99.90;;;;;;4934899;29;20113;-80
2022/09/13 12:18:19;;;;;;;6.00;1.33;;;20.50;99.90;;;;;;4919659;29;20508;-83
2022/09/13 12:21:32;;;;;;;7.32;1.30;;;20.50;99.90;;;;;;4917651;29;20479;-84
2022/09/13 12:24:06;;;;;;;3.75;0.98;;;19.90;99.90;;;;;;4929948;29;20052;-80
2022/09/13 12:27:00;;;;;;;3.88;0.90;;;20.70;99.90;;;;;;4916358;29;20091;-82
2022/09/13 12:29:54;;;;;;;7.53;1.40;;;20.40;99.90;;;;;;4916854;29;20065;-82
2022/09/13 12:32:56;;;;;;;4.18;1.05;;;20.40;99.90;;;;;;4916236;29;20511;-82
2022/09/13 12:35:45;;;;;;;5.50;1.17;;;20.60;99.90;;;;;;4916593;29;20386;-82
2022/09/13 12:38:46;;;;;;;9.40;1.13;;;20.60;99.90;;;;;;4916545;29;20058;-81
2022/09/13 12:41:40;;;;;;;5.95;1.30;;;20.30;99.90;;;;;;4932410;29;20053;-81
2022/09/13 12:44:49;;;;;;;5.78;1.10;;;20.10;99.90;;;;;;4911694;29;20544;-82
2022/09/13 12:47:33;;;;;;;4.95;1.50;;;19.80;99.90;;;;;;4895975;29;20047;-81
2022/09/13 12:54:27;;;;;;;2.42;0.90;;;19.10;99.90;;;;;;4856585;29;20601;-81
2022/09/13 12:57:23;;;;;;;2.75;1.10;;;20.10;99.90;;;;;;4845893;29;20054;-81
2022/09/13 13:00:17;;;;;;;4.50;1.10;;;20.20;99.90;;;;;;4900065;29;20059;-81
2022/09/13 13:02:56;;;;;;;7.87;1.33;;;20.10;99.90;;;;;;4927918;29;20142;-81
2022/09/13 13:05:38;;;;;;;5.90;1.58;;;20.20;99.90;;;;;;4915301;29;20106;-81
2022/09/13 13:08:31;;;;;;;3.88;1.00;;;19.70;99.90;;;;;;4915719;29;20213;-81
2022/09/13 13:11:50;;;;;;;5.38;1.30;;;19.00;99.90;;;;;;4914181;29;20131;-81
2022/09/13 13:14:37;;;;;;;3.03;1.13;;;19.60;99.90;;;;;;4917648;29;20039;-81
2022/09/13 13:17:55;;;;;;;5.85;1.13;;;19.50;99.90;;;;;;4935664;29;20130;-82
2022/09/13 13:21:36;;;;;;;4.80;1.00;;;18.90;99.90;;;;;;4943664;29;20077;-82
2022/09/13 13:24:14;;;;;;;8.25;1.30;;;20.10;99.90;;;;;;4882116;29;20412;-81
2022/09/13 13:27:48;;;;;;;6.63;1.02;;;19.80;99.90;;;;;;4951562;28;20039;-81
2022/09/13 13:30:41;;;;;;;3.30;0.98;;;19.90;99.90;;;;;;4863777;29;20047;-81
2022/09/13 13:33:34;;;;;;;6.53;1.55;;;19.90;99.90;;;;;;4919994;29;20164;-80
2022/09/13 13:36:48;;;;;;;4.75;1.10;;;19.90;99.90;;;;;;4920307;29;20087;-82
2022/09/13 13:39:36;;;;;;;4.35;1.05;;;19.90;99.90;;;;;;4919329;29;20049;-81
2022/09/13 13:42:30;;;;;;;;;;;20.00;99.90;;;;;;4901088;29;20055;-81
2022/09/13 13:45:52;;;;;;;6.05;1.10;;;20.00;99.90;;;;;;4933395;29;20395;-84
2022/09/13 13:49:05;;;;;;;6.20;1.48;;;18.70;99.90;;;;;;4894540;29;20098;-82
2022/09/13 13:51:31;;;;;;;5.32;1.08;;;18.80;99.90;;;;;;4903902;29;20051;-80
2022/09/13 13:54:48;;;;;;;6.63;1.77;;;19.50;99.90;;;;;;4934559;28;20134;-80
2022/09/13 13:57:53;;;;;;;5.80;1.00;;;19.40;99.90;;;;;;4921069;29;20043;-82
2022/09/13 14:12:00;;;;;;;5.18;1.38;;;20.20;99.90;;;;;;4933308;29;20493;-83
2022/09/13 14:15:14;;;;;;;;;;;;;;;;;;;;;
2022/09/13 14:26:18;;;;;;;7.32;1.23;;;19.70;99.90;;;;;;4953847;29;20082;-78
2022/09/13 14:28:44;;;;;;;5.75;1.83;;;19.00;99.90;;;;;;4880299;29;22231;-80
2022/09/13 14:31:19;;;;;;;3.72;1.17;;;19.30;99.90;;;;;;4881518;29;20063;-79
2022/09/13 14:38:25;;;;;;;;;;;;;;;;;;;;;
2022/09/13 14:41:41;;;;;;;;;;;;;;;;;;;;;
2022/09/13 14:45:06;;;;;;;4.07;0.90;;;19.30;99.90;;;;;;4826626;29;20066;-80
2022/09/13 15:06:45;;;;;;;3.85;0.82;;;18.80;99.90;;;;;;4819866;29;20091;-81
2022/09/13 15:17:15;;;;;;;3.97;0.73;;;18.60;99.90;;;;;;4868451;29;20048;-80
2022/09/13 15:26:36;;;;;;;3.25;1.02;;;18.50;99.90;;;;;;4826835;29;20053;-80
2022/09/13 15:33:25;;;;;;;4.07;0.90;;;18.00;99.90;;;;;;4783528;29;20069;-80